Time;durP1;ratioP1;P1;durP2;ratioP2;P2;SDS_P1;SDS_P2;PMS_P1;PMS_P2;Temp;Humidity;BMP_temperature;BMP_pressure;BME280_temperature;BME280_humidity;BME280_pressure;Samples;Min_cycle;Max_cycle;Signal;HPM_P1;HPM_P2
2023/08/27 00:01:52;;;;;;;2.80;2.17;;;;;;;;;;4997739;28;20215;-62
2023/08/27 00:04:21;;;;;;;2.20;2.00;;;;;;;;;;4997697;28;20603;-62
2023/08/27 00:06:49;;;;;;;2.30;2.10;;;;;;;;;;4997799;28;20207;-62
2023/08/27 00:09:16;;;;;;;3.58;2.10;;;;;;;;;;4997170;28;20214;-62
2023/08/27 00:11:44;;;;;;;2.53;2.08;;;;;;;;;;4997763;28;20246;-62
2023/08/27 00:14:11;;;;;;;2.00;1.90;;;;;;;;;;4998023;28;20211;-62
2023/08/27 00:16:39;;;;;;;2.30;2.10;;;;;;;;;;4997969;28;20314;-62
2023/08/27 00:19:07;;;;;;;2.28;2.08;;;;;;;;;;4997797;28;20211;-62
2023/08/27 00:21:36;;;;;;;3.65;2.30;;;;;;;;;;4999136;28;20222;-63
2023/08/27 00:24:04;;;;;;;2.25;2.00;;;;;;;;;;5002019;28;20207;-63
2023/08/27 00:26:31;;;;;;;2.40;2.20;;;;;;;;;;5001340;28;20706;-63
2023/08/27 00:28:59;;;;;;;2.40;2.13;;;;;;;;;;5001353;28;20214;-62
2023/08/27 00:31:27;;;;;;;2.30;2.10;;;;;;;;;;5001435;28;20257;-62
2023/08/27 00:33:54;;;;;;;3.53;2.30;;;;;;;;;;5001484;28;20214;-62
2023/08/27 00:36:22;;;;;;;2.90;1.95;;;;;;;;;;5001190;28;20532;-64
2023/08/27 00:38:51;;;;;;;2.45;2.22;;;;;;;;;;5000643;28;20206;-62
2023/08/27 00:41:18;;;;;;;2.03;1.77;;;;;;;;;;5001121;28;20285;-62
2023/08/27 00:43:46;;;;;;;2.35;1.83;;;;;;;;;;5001224;28;20501;-62
2023/08/27 00:46:14;;;;;;;2.10;2.00;;;;;;;;;;5001326;28;20594;-63
2023/08/27 00:48:41;;;;;;;3.53;2.10;;;;;;;;;;5000912;28;20242;-62
2023/08/27 00:51:09;;;;;;;2.42;2.22;;;;;;;;;;5001293;28;20215;-62
2023/08/27 00:53:37;;;;;;;1.90;1.80;;;;;;;;;;5000987;28;20206;-63
2023/08/27 00:56:06;;;;;;;1.95;1.85;;;;;;;;;;5001130;28;20203;-63
2023/08/27 00:58:34;;;;;;;2.13;1.90;;;;;;;;;;5000820;28;20238;-63
2023/08/27 01:01:04;;;;;;;1.70;1.60;;;;;;;;;;5001146;28;20431;-63
2023/08/27 01:03:32;;;;;;;2.00;1.80;;;;;;;;;;5000597;28;20299;-62
2023/08/27 01:06:00;;;;;;;2.25;1.90;;;;;;;;;;5000428;28;20245;-62
2023/08/27 01:08:29;;;;;;;2.13;1.90;;;;;;;;;;5000903;28;20218;-62
2023/08/27 01:11:02;;;;;;;3.67;2.00;;;;;;;;;;5000051;28;20282;-62
2023/08/27 01:13:33;;;;;;;1.95;1.80;;;;;;;;;;5000700;28;20650;-62
2023/08/27 01:16:03;;;;;;;2.30;2.10;;;;;;;;;;5000403;28;20592;-62
2023/08/27 01:18:30;;;;;;;3.03;2.13;;;;;;;;;;5000775;28;20219;-63
2023/08/27 01:20:58;;;;;;;3.03;2.03;;;;;;;;;;5000795;28;20666;-62
2023/08/27 01:23:27;;;;;;;2.88;1.90;;;;;;;;;;5000195;28;20218;-62
2023/08/27 01:25:55;;;;;;;2.28;1.90;;;;;;;;;;5000544;28;20230;-62
2023/08/27 01:28:26;;;;;;;1.80;1.70;;;;;;;;;;5000334;28;20250;-63
2023/08/27 01:30:57;;;;;;;2.03;1.83;;;;;;;;;;5000185;28;20207;-63
2023/08/27 01:33:27;;;;;;;2.33;1.88;;;;;;;;;;5000254;28;20304;-62
2023/08/27 01:35:55;;;;;;;2.47;2.28;;;;;;;;;;5000230;28;20238;-62
2023/08/27 01:38:23;;;;;;;2.30;2.10;;;;;;;;;;5000109;28;20490;-63
2023/08/27 01:40:52;;;;;;;2.38;1.88;;;;;;;;;;5000427;28;20214;-62
2023/08/27 01:43:20;;;;;;;4.45;1.98;;;;;;;;;;4999638;28;20690;-63
2023/08/27 01:45:48;;;;;;;2.28;1.88;;;;;;;;;;4999701;28;20322;-63
2023/08/27 01:48:15;;;;;;;2.42;1.90;;;;;;;;;;4999273;28;20207;-63
2023/08/27 01:50:43;;;;;;;3.10;1.80;;;;;;;;;;5000024;28;20218;-62
2023/08/27 01:53:11;;;;;;;1.98;1.80;;;;;;;;;;5000224;28;20470;-62
2023/08/27 01:55:39;;;;;;;2.90;1.92;;;;;;;;;;4999598;28;20582;-62
2023/08/27 01:58:08;;;;;;;1.90;1.80;;;;;;;;;;4999902;28;20374;-63
2023/08/27 02:00:36;;;;;;;2.05;1.70;;;;;;;;;;4999786;28;20239;-62
2023/08/27 02:03:05;;;;;;;1.80;1.70;;;;;;;;;;4999766;28;20433;-62
2023/08/27 02:05:32;;;;;;;2.10;1.60;;;;;;;;;;4999485;28;20238;-62
2023/08/27 02:08:00;;;;;;;2.10;1.90;;;;;;;;;;4999456;28;20211;-62
2023/08/27 02:13:40;;;;;;;1.80;1.70;;;;;;;;;;5446933;23;20244;-63
2023/08/27 02:16:07;;;;;;;2.17;1.60;;;;;;;;;;5078750;28;20196;-62
2023/08/27 02:18:34;;;;;;;2.90;1.83;;;;;;;;;;5078694;28;20216;-62
2023/08/27 02:21:03;;;;;;;2.63;1.90;;;;;;;;;;5078406;28;20239;-62
2023/08/27 02:23:30;;;;;;;2.10;1.90;;;;;;;;;;5078546;28;20239;-62
2023/08/27 02:25:58;;;;;;;1.83;1.52;;;;;;;;;;5078950;28;20228;-62
2023/08/27 02:28:26;;;;;;;1.80;1.70;;;;;;;;;;5078917;28;20215;-62
2023/08/27 02:30:55;;;;;;;1.60;1.50;;;;;;;;;;5078339;28;20736;-62
2023/08/27 02:33:22;;;;;;;2.00;1.90;;;;;;;;;;5078870;28;20205;-62
2023/08/27 02:35:50;;;;;;;2.60;2.22;;;;;;;;;;5078426;28;20655;-62
2023/08/27 02:38:17;;;;;;;2.67;1.70;;;;;;;;;;5078263;28;20501;-62
2023/08/27 02:40:44;;;;;;;1.90;1.80;;;;;;;;;;5078482;28;20196;-62
2023/08/27 02:43:12;;;;;;;2.03;1.92;;;;;;;;;;5078019;28;20205;-62
2023/08/27 02:45:39;;;;;;;1.88;1.77;;;;;;;;;;5078041;28;20235;-62
2023/08/27 02:48:08;;;;;;;2.22;2.00;;;;;;;;;;5078324;28;20216;-62
2023/08/27 02:50:35;;;;;;;2.17;1.77;;;;;;;;;;5078076;28;20212;-62
2023/08/27 02:53:02;;;;;;;2.10;1.67;;;;;;;;;;5077953;28;20501;-62
2023/08/27 02:55:31;;;;;;;1.92;1.80;;;;;;;;;;5078360;28;20240;-64
2023/08/27 02:57:58;;;;;;;2.03;1.60;;;;;;;;;;5077894;28;20263;-62
2023/08/27 03:00:26;;;;;;;2.13;1.90;;;;;;;;;;5078003;28;20588;-63
2023/08/27 03:02:54;;;;;;;2.05;1.85;;;;;;;;;;5078327;28;20212;-63
2023/08/27 03:05:22;;;;;;;2.00;1.90;;;;;;;;;;5077617;28;20635;-63
2023/08/27 03:07:50;;;;;;;1.90;1.80;;;;;;;;;;5077768;28;20212;-62
2023/08/27 03:10:17;;;;;;;1.88;1.77;;;;;;;;;;5077982;28;20215;-62
2023/08/27 03:12:44;;;;;;;1.77;1.67;;;;;;;;;;5077326;28;20243;-63
2023/08/27 03:15:12;;;;;;;2.00;1.90;;;;;;;;;;5077653;28;20643;-62
2023/08/27 03:17:40;;;;;;;2.30;1.80;;;;;;;;;;5077158;28;20580;-62
2023/08/27 03:20:07;;;;;;;2.83;1.92;;;;;;;;;;5078287;28;20214;-62
2023/08/27 03:22:36;;;;;;;1.70;1.60;;;;;;;;;;5077577;28;20211;-62
2023/08/27 03:25:03;;;;;;;3.22;2.00;;;;;;;;;;5077987;28;20200;-63
2023/08/27 03:27:31;;;;;;;2.40;1.58;;;;;;;;;;5078071;28;20228;-62
2023/08/27 03:29:58;;;;;;;1.83;1.70;;;;;;;;;;5077897;28;20204;-62
2023/08/27 03:32:26;;;;;;;2.20;2.00;;;;;;;;;;5077924;28;20234;-62
2023/08/27 03:34:53;;;;;;;1.90;1.80;;;;;;;;;;5077977;28;20204;-62
2023/08/27 03:37:20;;;;;;;2.67;1.90;;;;;;;;;;5077823;28;20315;-62
2023/08/27 03:39:49;;;;;;;1.75;1.55;;;;;;;;;;5077703;28;20204;-62
2023/08/27 03:42:16;;;;;;;1.83;1.73;;;;;;;;;;5077500;28;20287;-62
2023/08/27 03:44:44;;;;;;;1.90;1.80;;;;;;;;;;5076847;28;20482;-62
2023/08/27 03:47:12;;;;;;;1.88;1.60;;;;;;;;;;5077413;28;20518;-62
2023/08/27 03:49:39;;;;;;;1.88;1.77;;;;;;;;;;5077596;28;20216;-62
2023/08/27 03:52:06;;;;;;;2.08;1.88;;;;;;;;;;5077391;28;20223;-62
2023/08/27 03:54:34;;;;;;;2.10;1.63;;;;;;;;;;5076973;28;20215;-62
2023/08/27 03:57:03;;;;;;;1.98;1.77;;;;;;;;;;5081239;28;20212;-63
2023/08/27 03:59:30;;;;;;;1.92;1.80;;;;;;;;;;5081494;28;20214;-62
2023/08/27 04:01:59;;;;;;;2.05;1.80;;;;;;;;;;5081649;28;20211;-62
2023/08/27 04:04:26;;;;;;;1.70;1.60;;;;;;;;;;5081567;28;20607;-62
2023/08/27 04:06:55;;;;;;;1.90;1.80;;;;;;;;;;5081544;28;20224;-62
2023/08/27 04:09:22;;;;;;;1.80;1.70;;;;;;;;;;5081567;28;20204;-62
2023/08/27 04:11:50;;;;;;;1.90;1.80;;;;;;;;;;5081500;28;20596;-63
2023/08/27 04:14:18;;;;;;;3.72;1.90;;;;;;;;;;5081217;28;20600;-62
2023/08/27 04:16:47;;;;;;;1.85;1.70;;;;;;;;;;5081255;28;20227;-62
2023/08/27 04:19:15;;;;;;;2.35;1.90;;;;;;;;;;5081487;28;20204;-62
2023/08/27 04:21:42;;;;;;;1.77;1.67;;;;;;;;;;5081151;28;20204;-63
2023/08/27 04:24:10;;;;;;;1.80;1.70;;;;;;;;;;5081298;28;20204;-62
2023/08/27 04:26:38;;;;;;;1.70;1.60;;;;;;;;;;5080530;28;20228;-62
2023/08/27 04:29:06;;;;;;;2.17;1.67;;;;;;;;;;5081127;28;20251;-62
2023/08/27 04:31:34;;;;;;;2.63;1.67;;;;;;;;;;5081184;28;20498;-62
2023/08/27 04:34:02;;;;;;;1.80;1.70;;;;;;;;;;5080761;28;20215;-63
2023/08/27 04:36:30;;;;;;;1.83;1.65;;;;;;;;;;5080676;28;20204;-62
2023/08/27 04:38:57;;;;;;;2.10;2.00;;;;;;;;;;5081054;28;20204;-62
2023/08/27 04:41:25;;;;;;;2.08;1.85;;;;;;;;;;5080435;28;20214;-63
2023/08/27 04:43:52;;;;;;;1.70;1.60;;;;;;;;;;5081000;28;20484;-62
2023/08/27 04:46:20;;;;;;;1.70;1.60;;;;;;;;;;5080526;28;20231;-62
2023/08/27 04:48:48;;;;;;;1.73;1.60;;;;;;;;;;5080829;28;20208;-62
2023/08/27 04:51:16;;;;;;;2.08;1.80;;;;;;;;;;5080231;28;20219;-62
2023/08/27 04:53:43;;;;;;;2.22;1.73;;;;;;;;;;5079793;28;20606;-62
2023/08/27 04:56:11;;;;;;;2.58;1.80;;;;;;;;;;5080412;28;20235;-62
2023/08/27 04:58:38;;;;;;;2.03;1.67;;;;;;;;;;5080110;28;20592;-62
2023/08/27 05:01:05;;;;;;;2.00;1.70;;;;;;;;;;5080583;28;20204;-62
2023/08/27 05:03:33;;;;;;;1.90;1.80;;;;;;;;;;5080184;28;20215;-62
2023/08/27 05:06:01;;;;;;;1.88;1.77;;;;;;;;;;5080065;28;20228;-62
2023/08/27 05:08:29;;;;;;;2.08;1.90;;;;;;;;;;5079274;28;20231;-62
2023/08/27 05:10:56;;;;;;;2.10;1.90;;;;;;;;;;5080214;28;20204;-62
2023/08/27 05:13:25;;;;;;;1.70;1.60;;;;;;;;;;5080063;28;20245;-62
2023/08/27 05:15:52;;;;;;;2.33;1.80;;;;;;;;;;5079849;28;20215;-62
2023/08/27 05:18:20;;;;;;;1.98;1.77;;;;;;;;;;5079744;28;20580;-62
2023/08/27 05:20:47;;;;;;;2.17;1.80;;;;;;;;;;5080150;28;20218;-62
2023/08/27 05:23:17;;;;;;;1.80;1.70;;;;;;;;;;5078968;28;20227;-63
2023/08/27 05:25:45;;;;;;;2.40;1.80;;;;;;;;;;5079983;28;20212;-63
2023/08/27 05:28:12;;;;;;;2.42;1.80;;;;;;;;;;5079835;28;20205;-63
2023/08/27 05:30:42;;;;;;;2.15;1.90;;;;;;;;;;5079262;28;20219;-62
2023/08/27 05:33:10;;;;;;;1.77;1.65;;;;;;;;;;5079796;28;20204;-62
2023/08/27 05:35:37;;;;;;;2.20;2.00;;;;;;;;;;5079280;28;20248;-63
2023/08/27 05:38:05;;;;;;;2.22;2.10;;;;;;;;;;5078738;28;20227;-62
2023/08/27 05:40:33;;;;;;;1.90;1.80;;;;;;;;;;5078799;28;20205;-62
2023/08/27 05:43:01;;;;;;;2.20;1.77;;;;;;;;;;5078673;28;20208;-62
2023/08/27 05:45:28;;;;;;;1.98;1.77;;;;;;;;;;5079373;28;20204;-62
2023/08/27 05:47:56;;;;;;;1.80;1.70;;;;;;;;;;5079199;28;20228;-62
2023/08/27 05:50:23;;;;;;;1.98;1.70;;;;;;;;;;5079381;28;20200;-62
2023/08/27 05:52:51;;;;;;;2.15;2.05;;;;;;;;;;5079460;28;20234;-62
2023/08/27 05:55:18;;;;;;;2.20;2.00;;;;;;;;;;5079089;28;20597;-62
2023/08/27 05:57:47;;;;;;;2.10;1.80;;;;;;;;;;5079158;28;20212;-62
2023/08/27 06:00:15;;;;;;;1.90;1.75;;;;;;;;;;5079215;28;20211;-62
2023/08/27 06:02:43;;;;;;;1.83;1.73;;;;;;;;;;5078665;28;20212;-62
2023/08/27 06:05:11;;;;;;;2.00;1.90;;;;;;;;;;5078996;28;20204;-63
2023/08/27 06:07:38;;;;;;;2.15;1.98;;;;;;;;;;5078819;28;20232;-62
2023/08/27 06:10:06;;;;;;;2.00;1.90;;;;;;;;;;5078153;28;20565;-62
2023/08/27 06:12:35;;;;;;;2.45;2.05;;;;;;;;;;5077935;28;20242;-62
2023/08/27 06:15:04;;;;;;;2.10;1.98;;;;;;;;;;5078341;28;20227;-62
2023/08/27 06:17:32;;;;;;;2.17;2.05;;;;;;;;;;5078554;28;20207;-62
2023/08/27 06:19:59;;;;;;;2.20;2.00;;;;;;;;;;5077416;28;20212;-63
2023/08/27 06:22:26;;;;;;;2.30;1.98;;;;;;;;;;5078067;28;20212;-62
2023/08/27 06:24:54;;;;;;;2.00;1.90;;;;;;;;;;5078413;28;20212;-62
2023/08/27 06:27:21;;;;;;;2.25;2.05;;;;;;;;;;5078498;28;20242;-62
2023/08/27 06:29:49;;;;;;;2.53;1.98;;;;;;;;;;5077716;28;20204;-62
2023/08/27 06:32:17;;;;;;;2.28;1.98;;;;;;;;;;5078774;28;20539;-62
2023/08/27 06:34:45;;;;;;;2.00;1.90;;;;;;;;;;5078112;28;20204;-63
2023/08/27 06:37:12;;;;;;;3.20;2.22;;;;;;;;;;5078379;28;20262;-63
2023/08/27 06:39:40;;;;;;;2.17;1.98;;;;;;;;;;5078889;28;20567;-62
2023/08/27 06:42:07;;;;;;;2.00;1.90;;;;;;;;;;5078215;28;20204;-62
2023/08/27 06:44:35;;;;;;;2.10;2.00;;;;;;;;;;5077469;28;20211;-63
2023/08/27 06:47:02;;;;;;;2.42;2.22;;;;;;;;;;5077602;28;20604;-62
2023/08/27 06:49:31;;;;;;;2.30;2.10;;;;;;;;;;5078400;28;20227;-62
2023/08/27 06:51:58;;;;;;;2.10;1.90;;;;;;;;;;5077931;28;20204;-62
2023/08/27 06:54:26;;;;;;;2.63;2.15;;;;;;;;;;5077791;28;20498;-62
2023/08/27 06:56:53;;;;;;;2.60;2.40;;;;;;;;;;5078000;28;20227;-62
2023/08/27 06:59:21;;;;;;;2.40;2.20;;;;;;;;;;5078008;28;20215;-62
2023/08/27 07:01:48;;;;;;;2.10;1.90;;;;;;;;;;5077514;28;20493;-63
2023/08/27 07:04:15;;;;;;;2.38;2.20;;;;;;;;;;5077639;28;20215;-62
2023/08/27 07:06:44;;;;;;;2.22;2.03;;;;;;;;;;5077707;28;20227;-62
2023/08/27 07:09:12;;;;;;;2.65;2.45;;;;;;;;;;5077808;28;20215;-62
2023/08/27 07:11:39;;;;;;;2.47;2.00;;;;;;;;;;5077111;28;20216;-62
2023/08/27 07:14:07;;;;;;;2.38;2.17;;;;;;;;;;5077163;28;20243;-62
2023/08/27 07:16:34;;;;;;;2.40;2.03;;;;;;;;;;5077451;28;20203;-62
2023/08/27 07:19:01;;;;;;;2.00;1.90;;;;;;;;;;5077240;28;20212;-63
2023/08/27 07:21:29;;;;;;;2.33;1.92;;;;;;;;;;5076498;28;20242;-62
2023/08/27 07:23:58;;;;;;;2.17;1.98;;;;;;;;;;5077096;28;20204;-62
2023/08/27 07:26:26;;;;;;;1.85;1.75;;;;;;;;;;5077114;28;20306;-62
2023/08/27 07:28:53;;;;;;;2.00;1.90;;;;;;;;;;5076580;28;20701;-62
2023/08/27 07:31:20;;;;;;;2.10;1.90;;;;;;;;;;5076861;28;20204;-62
2023/08/27 07:33:48;;;;;;;2.25;2.05;;;;;;;;;;5077040;28;20204;-62
2023/08/27 07:36:15;;;;;;;2.60;2.35;;;;;;;;;;5077629;28;20231;-62
2023/08/27 07:38:43;;;;;;;2.33;2.13;;;;;;;;;;5077400;28;20200;-62
2023/08/27 07:41:13;;;;;;;3.33;1.90;;;;;;;;;;5077198;28;20211;-62
2023/08/27 07:43:41;;;;;;;2.40;2.15;;;;;;;;;;5076944;28;20540;-62
2023/08/27 07:46:08;;;;;;;2.17;1.98;;;;;;;;;;5077111;28;20219;-62
2023/08/27 07:48:37;;;;;;;2.30;2.10;;;;;;;;;;5076306;28;20669;-62
2023/08/27 07:51:05;;;;;;;2.17;2.08;;;;;;;;;;5076670;28;20204;-62
2023/08/27 07:53:32;;;;;;;1.90;1.80;;;;;;;;;;5076456;28;20740;-62
2023/08/27 07:55:59;;;;;;;2.50;2.25;;;;;;;;;;5076859;28;20201;-62
2023/08/27 07:58:30;;;;;;;2.40;2.13;;;;;;;;;;5076382;28;20311;-62
2023/08/27 08:00:59;;;;;;;2.10;2.00;;;;;;;;;;5076693;28;20226;-62
2023/08/27 08:03:26;;;;;;;2.53;2.15;;;;;;;;;;5076478;28;20548;-62
2023/08/27 08:05:54;;;;;;;2.10;1.90;;;;;;;;;;5076380;28;20282;-62
2023/08/27 08:08:21;;;;;;;2.90;2.17;;;;;;;;;;5076033;28;20235;-62
2023/08/27 08:10:48;;;;;;;2.35;2.10;;;;;;;;;;5076319;28;20632;-62
2023/08/27 08:13:16;;;;;;;2.47;2.28;;;;;;;;;;5076283;28;20240;-62
2023/08/27 08:15:44;;;;;;;2.72;2.40;;;;;;;;;;5076023;28;20593;-62
2023/08/27 08:18:12;;;;;;;2.85;2.40;;;;;;;;;;5076256;28;20197;-62
2023/08/27 08:20:40;;;;;;;2.65;2.10;;;;;;;;;;5076119;28;20514;-63
2023/08/27 08:23:08;;;;;;;2.50;2.30;;;;;;;;;;5076270;28;20234;-62
2023/08/27 08:25:37;;;;;;;2.30;2.10;;;;;;;;;;5076065;28;20211;-62
2023/08/27 08:28:05;;;;;;;2.20;2.00;;;;;;;;;;5076498;28;20228;-62
2023/08/27 08:30:32;;;;;;;2.58;2.13;;;;;;;;;;5076460;28;20298;-62
2023/08/27 08:33:01;;;;;;;2.10;2.00;;;;;;;;;;5076761;28;20482;-62
2023/08/27 08:35:28;;;;;;;2.78;2.58;;;;;;;;;;5075628;28;20204;-62
2023/08/27 08:37:55;;;;;;;3.42;2.20;;;;;;;;;;5076058;28;20207;-62
2023/08/27 08:40:23;;;;;;;2.28;2.08;;;;;;;;;;5076866;28;20215;-62
2023/08/27 08:42:53;;;;;;;2.10;1.90;;;;;;;;;;5078148;28;20286;-62
2023/08/27 08:45:23;;;;;;;1.85;1.75;;;;;;;;;;5079881;28;20262;-62
2023/08/27 08:47:53;;;;;;;2.17;2.00;;;;;;;;;;5079674;28;20228;-62
2023/08/27 08:50:23;;;;;;;2.30;2.10;;;;;;;;;;5079734;28;20204;-63
2023/08/27 08:52:51;;;;;;;2.00;1.80;;;;;;;;;;5079506;28;20204;-62
2023/08/27 08:55:20;;;;;;;2.10;1.85;;;;;;;;;;5079941;28;20204;-63
2023/08/27 08:57:51;;;;;;;2.63;2.30;;;;;;;;;;5079223;28;20222;-62
2023/08/27 09:00:20;;;;;;;2.97;2.28;;;;;;;;;;5079075;28;20208;-62
2023/08/27 09:02:47;;;;;;;2.28;2.15;;;;;;;;;;5079417;28;20204;-62
2023/08/27 09:05:17;;;;;;;2.30;2.13;;;;;;;;;;5078953;28;20204;-62
2023/08/27 09:07:48;;;;;;;1.90;1.80;;;;;;;;;;5079035;28;20790;-62
2023/08/27 09:10:15;;;;;;;2.30;2.10;;;;;;;;;;5079053;28;20250;-62
2023/08/27 09:12:43;;;;;;;2.67;1.92;;;;;;;;;;5078451;28;20318;-62
2023/08/27 09:15:10;;;;;;;2.58;2.30;;;;;;;;;;5078911;28;20204;-62
2023/08/27 09:17:38;;;;;;;2.47;2.00;;;;;;;;;;5078925;28;20211;-62
2023/08/27 09:20:07;;;;;;;2.75;2.03;;;;;;;;;;5078758;28;20227;-62
2023/08/27 09:22:35;;;;;;;1.73;1.63;;;;;;;;;;5079167;28;20205;-62
2023/08/27 09:25:05;;;;;;;2.40;2.20;;;;;;;;;;5079349;28;20196;-62
2023/08/27 09:27:33;;;;;;;2.72;2.20;;;;;;;;;;5078291;28;20220;-62
2023/08/27 09:30:01;;;;;;;2.40;2.20;;;;;;;;;;5078649;28;20204;-62
2023/08/27 09:32:28;;;;;;;2.72;2.00;;;;;;;;;;5078612;28;20203;-62
2023/08/27 09:34:58;;;;;;;4.05;2.33;;;;;;;;;;5077769;28;20215;-63
2023/08/27 09:37:28;;;;;;;2.80;2.10;;;;;;;;;;5078372;28;20497;-62
2023/08/27 09:39:55;;;;;;;2.90;2.22;;;;;;;;;;5077811;28;20209;-62
2023/08/27 09:42:25;;;;;;;3.05;2.35;;;;;;;;;;5078679;28;20227;-62
2023/08/27 09:44:53;;;;;;;2.28;2.08;;;;;;;;;;5078485;28;20200;-62
2023/08/27 09:47:30;;;;;;;2.38;1.90;;;;;;;;;;5078503;28;20212;-62
2023/08/27 09:49:58;;;;;;;2.83;2.35;;;;;;;;;;5078424;28;20542;-62
2023/08/27 09:52:26;;;;;;;2.42;2.22;;;;;;;;;;5078253;28;20200;-62
2023/08/27 09:54:53;;;;;;;2.08;1.88;;;;;;;;;;5077181;28;20576;-62
2023/08/27 09:57:21;;;;;;;2.17;1.98;;;;;;;;;;5078299;28;20204;-62
2023/08/27 09:59:50;;;;;;;2.20;2.00;;;;;;;;;;5078346;28;20197;-62
2023/08/27 10:02:18;;;;;;;1.90;1.70;;;;;;;;;;5078173;28;20215;-62
2023/08/27 10:04:52;;;;;;;1.98;1.70;;;;;;;;;;5078502;28;20493;-62
2023/08/27 10:07:20;;;;;;;2.03;1.80;;;;;;;;;;5077741;28;20203;-62
2023/08/27 10:09:51;;;;;;;2.42;2.00;;;;;;;;;;5077990;28;20215;-62
2023/08/27 10:12:18;;;;;;;2.08;1.92;;;;;;;;;;5077629;28;20212;-62
2023/08/27 10:14:46;;;;;;;1.77;1.65;;;;;;;;;;5078559;28;20581;-62
2023/08/27 10:17:16;;;;;;;2.20;2.00;;;;;;;;;;5078458;28;20211;-62
2023/08/27 10:19:44;;;;;;;2.17;1.98;;;;;;;;;;5078883;28;20212;-62
2023/08/27 10:22:11;;;;;;;2.42;2.00;;;;;;;;;;5077910;28;20204;-62
2023/08/27 10:24:40;;;;;;;2.25;2.05;;;;;;;;;;5077557;28;20221;-62
2023/08/27 10:27:07;;;;;;;2.85;2.08;;;;;;;;;;5077219;28;20235;-62
2023/08/27 10:29:36;;;;;;;2.20;2.00;;;;;;;;;;5077897;28;20634;-62
2023/08/27 10:32:07;;;;;;;2.10;1.90;;;;;;;;;;5077851;28;20307;-63
2023/08/27 10:34:37;;;;;;;3.30;2.17;;;;;;;;;;5078299;28;20208;-62
2023/08/27 10:37:06;;;;;;;2.95;1.80;;;;;;;;;;5077739;28;20205;-62
2023/08/27 10:39:35;;;;;;;2.47;1.63;;;;;;;;;;5077675;28;20235;-62
2023/08/27 10:42:03;;;;;;;1.85;1.70;;;;;;;;;;5077066;28;20857;-62
2023/08/27 10:44:30;;;;;;;2.72;1.65;;;;;;;;;;5076104;28;20516;-62
2023/08/27 10:47:11;;;;;;;2.50;1.92;;;;;;;;;;5076661;28;20204;-62
2023/08/27 10:49:42;;;;;;;1.95;1.73;;;;;;;;;;5076488;28;20561;-62
2023/08/27 10:52:16;;;;;;;1.88;1.70;;;;;;;;;;5075891;28;20212;-62
2023/08/27 10:54:44;;;;;;;3.25;2.10;;;;;;;;;;5075552;28;20204;-62
2023/08/27 10:57:18;;;;;;;2.33;1.95;;;;;;;;;;5075587;28;20573;-62
2023/08/27 10:59:45;;;;;;;2.20;1.60;;;;;;;;;;5082914;28;20222;-62
2023/08/27 11:02:16;;;;;;;1.85;1.65;;;;;;;;;;5096471;28;20212;-62
2023/08/27 11:04:45;;;;;;;2.40;1.65;;;;;;;;;;5095462;28;20211;-62
2023/08/27 11:07:14;;;;;;;2.58;1.80;;;;;;;;;;5096632;28;20204;-62
2023/08/27 11:09:49;;;;;;;2.05;1.85;;;;;;;;;;5096309;28;20522;-62
2023/08/27 11:12:26;;;;;;;2.25;1.73;;;;;;;;;;5097564;28;20318;-62
2023/08/27 11:14:54;;;;;;;1.85;1.73;;;;;;;;;;5097326;28;20203;-62
2023/08/27 11:17:26;;;;;;;1.73;1.50;;;;;;;;;;5096685;28;20214;-62
2023/08/27 11:19:56;;;;;;;3.10;1.65;;;;;;;;;;5096426;28;20200;-62
2023/08/27 11:22:24;;;;;;;2.85;2.13;;;;;;;;;;5096374;28;20208;-62
2023/08/27 11:24:53;;;;;;;1.80;1.63;;;;;;;;;;5095781;28;20238;-62
2023/08/27 11:27:21;;;;;;;2.17;1.70;;;;;;;;;;5096924;28;20211;-62
2023/08/27 11:29:49;;;;;;;2.17;2.00;;;;;;;;;;5097010;28;20223;-62
2023/08/27 11:32:17;;;;;;;2.53;1.80;;;;;;;;;;5097136;28;20207;-62
2023/08/27 11:34:45;;;;;;;2.55;2.00;;;;;;;;;;5096368;28;20207;-62
2023/08/27 11:37:14;;;;;;;3.10;1.80;;;;;;;;;;5096774;28;20203;-62
2023/08/27 11:39:41;;;;;;;2.08;1.50;;;;;;;;;;5097298;28;20203;-62
2023/08/27 11:42:12;;;;;;;1.60;1.50;;;;;;;;;;5097040;28;20207;-62
2023/08/27 11:44:49;;;;;;;3.22;1.70;;;;;;;;;;5096567;28;20203;-62
2023/08/27 11:47:17;;;;;;;2.10;1.52;;;;;;;;;;5097098;28;20562;-62
2023/08/27 11:49:44;;;;;;;1.90;1.73;;;;;;;;;;5096433;28;20288;-62
2023/08/27 11:52:15;;;;;;;1.85;1.75;;;;;;;;;;5096095;28;20231;-62
2023/08/27 11:54:43;;;;;;;2.67;2.00;;;;;;;;;;5096168;28;20253;-62
2023/08/27 11:57:10;;;;;;;1.70;1.60;;;;;;;;;;5096169;28;20199;-62
2023/08/27 11:59:39;;;;;;;2.03;1.70;;;;;;;;;;5096374;28;20211;-63
2023/08/27 12:02:11;;;;;;;1.85;1.70;;;;;;;;;;5095958;28;20477;-62
2023/08/27 12:04:39;;;;;;;2.42;1.95;;;;;;;;;;5096077;28;20509;-62
2023/08/27 12:07:07;;;;;;;2.53;1.90;;;;;;;;;;5096689;28;20478;-62
2023/08/27 12:09:37;;;;;;;2.38;1.95;;;;;;;;;;5095993;28;20638;-62
2023/08/27 12:12:06;;;;;;;2.92;2.20;;;;;;;;;;5095844;28;20273;-62
2023/08/27 12:14:33;;;;;;;2.10;1.88;;;;;;;;;;5095975;28;20302;-62
2023/08/27 12:17:07;;;;;;;2.55;2.10;;;;;;;;;;5098280;28;20204;-62
2023/08/27 12:19:34;;;;;;;2.20;2.00;;;;;;;;;;5100082;28;20199;-62
2023/08/27 12:22:02;;;;;;;2.42;2.15;;;;;;;;;;5100049;28;20506;-62
2023/08/27 12:24:30;;;;;;;2.10;1.90;;;;;;;;;;5099075;28;20207;-62
2023/08/27 12:27:00;;;;;;;1.75;1.65;;;;;;;;;;5099366;28;20199;-62
2023/08/27 12:29:29;;;;;;;1.83;1.65;;;;;;;;;;5099147;28;20226;-62
2023/08/27 12:31:56;;;;;;;2.67;2.13;;;;;;;;;;5098919;28;20203;-62
2023/08/27 12:34:34;;;;;;;2.53;2.05;;;;;;;;;;5099026;28;20626;-62
2023/08/27 12:37:03;;;;;;;2.88;1.80;;;;;;;;;;5099354;28;20207;-62
2023/08/27 12:39:31;;;;;;;2.47;1.73;;;;;;;;;;5098649;28;20219;-62
2023/08/27 12:42:00;;;;;;;2.83;2.00;;;;;;;;;;5100152;28;20298;-62
2023/08/27 12:44:27;;;;;;;4.53;2.15;;;;;;;;;;5099875;28;20204;-62
2023/08/27 12:46:54;;;;;;;3.88;2.22;;;;;;;;;;5099613;28;20254;-62
2023/08/27 12:49:22;;;;;;;2.10;2.00;;;;;;;;;;5098585;28;20223;-62
2023/08/27 12:51:49;;;;;;;2.85;2.03;;;;;;;;;;5099028;28;20195;-62
2023/08/27 12:54:17;;;;;;;2.50;2.30;;;;;;;;;;5099374;28;20195;-62
2023/08/27 12:56:45;;;;;;;3.65;2.20;;;;;;;;;;5099664;28;20291;-62
2023/08/27 12:59:14;;;;;;;2.88;2.20;;;;;;;;;;5098541;28;20286;-62
2023/08/27 13:01:42;;;;;;;2.50;2.22;;;;;;;;;;5099435;28;20204;-62
2023/08/27 13:04:09;;;;;;;2.40;2.20;;;;;;;;;;5099096;28;20235;-62
2023/08/27 13:06:37;;;;;;;2.28;2.08;;;;;;;;;;5099195;28;20199;-62
2023/08/27 13:09:06;;;;;;;2.92;2.30;;;;;;;;;;5099743;28;20495;-62
2023/08/27 13:11:34;;;;;;;2.40;2.20;;;;;;;;;;5099304;28;20211;-62
2023/08/27 13:14:01;;;;;;;2.40;2.20;;;;;;;;;;5098826;28;20242;-62
2023/08/27 13:16:30;;;;;;;2.35;2.15;;;;;;;;;;5099090;28;20707;-62
2023/08/27 13:18:58;;;;;;;3.67;2.00;;;;;;;;;;5098564;28;20199;-62
2023/08/27 13:21:25;;;;;;;2.80;2.40;;;;;;;;;;5099049;28;20207;-62
2023/08/27 13:23:52;;;;;;;2.15;1.95;;;;;;;;;;5098391;28;20206;-62
2023/08/27 13:26:20;;;;;;;2.08;1.90;;;;;;;;;;5099165;28;20234;-62
2023/08/27 13:28:47;;;;;;;2.70;2.17;;;;;;;;;;5098247;28;20598;-62
2023/08/27 13:31:15;;;;;;;2.42;2.22;;;;;;;;;;5099217;28;20204;-62
2023/08/27 13:33:43;;;;;;;2.65;2.20;;;;;;;;;;5099168;28;20204;-62
2023/08/27 13:36:11;;;;;;;3.25;2.45;;;;;;;;;;5098753;28;20536;-62
2023/08/27 13:38:38;;;;;;;2.78;2.15;;;;;;;;;;5098850;28;20585;-62
2023/08/27 13:41:06;;;;;;;2.42;2.22;;;;;;;;;;5099065;28;20214;-62
2023/08/27 13:43:33;;;;;;;2.17;1.98;;;;;;;;;;5098826;28;20302;-62
2023/08/27 13:46:01;;;;;;;2.42;2.20;;;;;;;;;;5098071;28;20269;-62
2023/08/27 13:48:28;;;;;;;2.65;2.20;;;;;;;;;;5097934;28;20211;-62
2023/08/27 13:50:58;;;;;;;2.80;2.20;;;;;;;;;;5097451;28;20208;-62
2023/08/27 13:53:25;;;;;;;2.35;2.13;;;;;;;;;;5097076;28;20607;-62
2023/08/27 13:55:52;;;;;;;2.03;1.83;;;;;;;;;;5097746;28;20200;-62
2023/08/27 13:58:20;;;;;;;2.35;2.15;;;;;;;;;;5098274;28;20204;-62
2023/08/27 14:00:47;;;;;;;1.98;1.88;;;;;;;;;;5098373;28;20206;-62
2023/08/27 14:03:15;;;;;;;2.00;1.90;;;;;;;;;;5097909;28;20464;-62
2023/08/27 14:05:42;;;;;;;2.67;2.22;;;;;;;;;;5098655;28;20203;-63
2023/08/27 14:08:11;;;;;;;2.45;1.95;;;;;;;;;;5098578;28;20201;-62
2023/08/27 14:10:38;;;;;;;2.75;2.30;;;;;;;;;;5098370;28;20257;-62
2023/08/27 14:13:06;;;;;;;2.05;1.95;;;;;;;;;;5098453;28;20611;-62
2023/08/27 14:15:33;;;;;;;2.03;1.90;;;;;;;;;;5097554;28;20517;-62
2023/08/27 14:18:01;;;;;;;2.42;2.13;;;;;;;;;;5097256;28;20251;-62
2023/08/27 14:20:28;;;;;;;2.63;2.25;;;;;;;;;;5078355;28;20200;-62
2023/08/27 14:22:56;;;;;;;2.22;2.10;;;;;;;;;;5077883;28;20204;-62
2023/08/27 14:25:25;;;;;;;2.33;2.13;;;;;;;;;;5076692;28;20205;-62
2023/08/27 14:27:53;;;;;;;2.05;1.92;;;;;;;;;;5077043;28;20207;-62
2023/08/27 14:30:20;;;;;;;3.42;2.17;;;;;;;;;;5076868;28;20323;-62
2023/08/27 14:32:48;;;;;;;2.50;2.10;;;;;;;;;;5076434;28;20604;-62
2023/08/27 14:35:15;;;;;;;2.40;2.20;;;;;;;;;;5076306;28;20236;-62
2023/08/27 14:37:44;;;;;;;2.30;2.10;;;;;;;;;;5077119;28;20204;-62
2023/08/27 14:40:12;;;;;;;1.83;1.73;;;;;;;;;;5076021;28;20197;-62
2023/08/27 14:42:41;;;;;;;2.42;2.03;;;;;;;;;;5076735;28;20205;-62
2023/08/27 14:45:09;;;;;;;2.03;1.83;;;;;;;;;;5075216;28;20592;-62
2023/08/27 14:47:37;;;;;;;2.20;2.00;;;;;;;;;;5076513;28;20236;-62
2023/08/27 14:50:05;;;;;;;2.17;1.98;;;;;;;;;;5076264;28;20235;-62
2023/08/27 14:52:32;;;;;;;2.38;2.00;;;;;;;;;;5076207;28;20204;-62